Osceola, IN (46561)

2:40 PM EST on December 04, 2016 (GMT -0500)
Heather Lake Subdivision | | Change Station

Elev 741 ft 41.64 °N, 86.06 °W | Updated 36 seconds ago

Light Snow
Light Snow
33.0 °F
Feels Like 33 °F
N
1.0
Wind Variable Wind from East
Gusts 2.0 mph

Today
High -- | Low -- °F
--% Chance of Precip.
Yesterday
High -- | Low -- °F
Precip. -- in
Pressure 30.01 in
Visibility 2.5 miles
Clouds Overcast 900 ft
Windchill 33 °F
Dew Point 31 °F
Humidity 92%
Rainfall 0.00 in
Snow Depth Not available.
7:55 AM 5:14 PM
Waxing Crescent, 25% visible
METAR KEKM 041850Z 11005KT 2 1/2SM -SN OVC009 01/00 A3001 RMK AO2
Pressure 30.01 in
Visibility 2.5 miles
Clouds Overcast 900 ft
Windchill 33 °F
Dew Point 31 °F
Humidity 92%
Rainfall 0.00 in
Snow Depth Not available.
7:55 AM 5:14 PM
Waxing Crescent, 25% visible
METAR KEKM 041850Z 11005KT 2 1/2SM -SN OVC009 01/00 A3001 RMK AO2

10-Day Weather Forecast

Almanac

Astronomy

Dec. 04, 2016 Rise Set
Actual Time
Civil Twilight
Nautical Twilight
Astronomical Twilight
Moon
Length of Visible Light
Length of Day
Tomorrow will be .
, % of the Moon is Illuminated

Today's Extremes

State Highs State Lows

Community

WunderPhotos

Upload Photos

1,955,650 photos uploaded!

WunderBlog® & News

Nearby

Air Quality

  Air Quality AQ Index Pollutant
Not available.

Snow Depth

Station Depth Elevation

Earthquake Activity

City Distance Mag. Time & Date
Minimum magnitude displayed is 2.5.

Coastal Water Temperatures

Place Temperature

Stations

Nearby Weather Stations

Station Location Temp. Windchill Dew Point Humidity Wind Precip. Elev Updated Type
                   

Watches & Warnings

There are currently no watches in effect.